createdAt,value
2022-08-05T00:00:16.300Z,98243.89
2022-08-05T00:01:49.118Z,98242.72
2022-08-05T00:03:00.177Z,98246.30
2022-08-05T00:04:09.033Z,98242.71
2022-08-05T00:06:05.388Z,98244.66
2022-08-05T00:06:57.558Z,98244.95
2022-08-05T00:08:10.739Z,98245.64
2022-08-05T00:09:40.401Z,98245.80
2022-08-05T00:10:56.786Z,98239.41
2022-08-05T00:12:13.188Z,98239.88
2022-08-05T00:13:38.128Z,98244.23
2022-08-05T00:14:51.633Z,98241.42
2022-08-05T00:16:03.405Z,98241.37
2022-08-05T00:17:19.538Z,98248.95
2022-08-05T00:18:29.145Z,98250.52
2022-08-05T00:19:45.803Z,98248.52
2022-08-05T00:21:11.312Z,98246.55
2022-08-05T00:22:22.803Z,98248.69
2022-08-05T00:23:46.345Z,98250.64
2022-08-05T00:24:58.994Z,98249.20
2022-08-05T00:26:10.577Z,98248.82
2022-08-05T00:27:18.958Z,98254.48
2022-08-05T00:28:29.592Z,98259.17
2022-08-05T00:29:39.955Z,98260.58
2022-08-05T00:30:52.057Z,98258.91
2022-08-05T00:32:12.324Z,98258.98
2022-08-05T00:34:55.925Z,98258.38
2022-08-05T00:35:05.689Z,98260.72
2022-08-05T00:37:11.169Z,98261.49
2022-08-05T00:37:55.693Z,98264.90
2022-08-05T00:39:06.735Z,98268.89
2022-08-05T00:40:28.409Z,98263.26
2022-08-05T00:41:51.858Z,98267.63
2022-08-05T00:43:15.258Z,98267.64
2022-08-05T00:44:30.797Z,98266.27
2022-08-05T00:45:45.738Z,98263.70
2022-08-05T00:47:03.961Z,98266.58
2022-08-05T00:48:17.510Z,98268.38
2022-08-05T00:49:28.117Z,98271.48
2022-08-05T00:50:44.278Z,98268.89
2022-08-05T00:51:57.310Z,98270.80
2022-08-05T00:53:09.507Z,98268.78
2022-08-05T00:54:38.235Z,98269.48
2022-08-05T00:55:46.623Z,98267.90
2022-08-05T00:56:58.012Z,98264.96
2022-08-05T00:58:07.852Z,98269.81
2022-08-05T00:59:22.446Z,98266.05
2022-08-05T01:00:36.236Z,98262.88
2022-08-05T01:01:48.979Z,98262.88
2022-08-05T01:02:59.684Z,98260.84
2022-08-05T01:04:13.858Z,98263.16
2022-08-05T01:05:22.900Z,98264.83
2022-08-05T01:06:32.830Z,98263.45
2022-08-05T01:08:41.409Z,98263.82
2022-08-05T01:09:11.461Z,98267.48
2022-08-05T01:10:20.660Z,98264.73
2022-08-05T01:11:37.770Z,98266.84
2022-08-05T01:13:05.193Z,98265.66
2022-08-05T01:14:28.470Z,98263.13
2022-08-05T01:15:40.799Z,98267.03
2022-08-05T01:17:11.883Z,98270.51
2022-08-05T01:18:27.503Z,98279.19
2022-08-05T01:20:00.949Z,98274.25
2022-08-05T01:21:12.257Z,98271.14
2022-08-05T01:22:52.302Z,98271.98
2022-08-05T01:24:14.462Z,98274.64
2022-08-05T01:25:41.639Z,98276.14
2022-08-05T01:27:19.338Z,98272.98
2022-08-05T01:28:39.501Z,98273.11
2022-08-05T01:29:57.537Z,98269.38
2022-08-05T01:31:12.112Z,98269.02
2022-08-05T01:32:23.020Z,98270.96
2022-08-05T01:33:40.291Z,98270.58
2022-08-05T01:35:13.373Z,98274.96
2022-08-05T01:36:57.421Z,98278.68
2022-08-05T01:38:10.799Z,98276.59
2022-08-05T01:39:47.205Z,98279.69
2022-08-05T01:41:01.736Z,98286.88
2022-08-05T01:42:13.691Z,98285.69
2022-08-05T01:43:24.161Z,98283.15
2022-08-05T01:44:34.496Z,98281.44
2022-08-05T01:45:44.615Z,98283.80
2022-08-05T01:47:09.606Z,98281.89
2022-08-05T01:48:18.759Z,98283.60
2022-08-05T01:50:00.296Z,98278.85
2022-08-05T01:51:00.122Z,98281.71
2022-08-05T01:52:22.056Z,98281.54
2022-08-05T01:53:55.053Z,98280.81
2022-08-05T01:55:06.399Z,98283.94
2022-08-05T01:58:09.770Z,98282.60
2022-08-05T01:58:11.543Z,98282.30
2022-08-05T01:59:16.548Z,98281.89
2022-08-05T02:00:30.560Z,98283.33
2022-08-05T02:01:40.680Z,98281.95
2022-08-05T02:03:29.261Z,98281.61
2022-08-05T02:04:42.000Z,98280.70
2022-08-05T02:06:01.073Z,98277.40
2022-08-05T02:07:21.578Z,98273.67
2022-08-05T02:08:33.614Z,98272.98
2022-08-05T02:09:46.041Z,98273.70
2022-08-05T02:10:56.053Z,98274.41
2022-08-05T02:12:28.019Z,98273.83
2022-08-05T02:14:21.782Z,98277.14
2022-08-05T02:15:39.796Z,98278.34
2022-08-05T02:16:58.276Z,98280.39
2022-08-05T02:18:34.268Z,98284.96
2022-08-05T02:19:55.112Z,98289.79
2022-08-05T02:21:15.150Z,98286.66
2022-08-05T02:22:28.883Z,98284.36
2022-08-05T02:23:43.037Z,98287.84
2022-08-05T02:25:07.696Z,98290.48
2022-08-05T02:26:21.807Z,98287.83
2022-08-05T02:27:59.778Z,98289.46
2022-08-05T02:29:01.114Z,98291.84
2022-08-05T02:30:17.053Z,98293.55
2022-08-05T02:31:29.249Z,98294.13
2022-08-05T02:32:50.848Z,98289.85
2022-08-05T02:34:09.904Z,98291.26
2022-08-05T02:35:33.005Z,98290.16
2022-08-05T02:36:54.715Z,98293.12
2022-08-05T02:38:04.031Z,98294.46
2022-08-05T02:39:14.035Z,98295.79
2022-08-05T02:40:22.905Z,98299.10
2022-08-05T02:41:43.177Z,98301.39
2022-08-05T02:43:07.318Z,98303.46
2022-08-05T02:44:19.629Z,98305.07
2022-08-05T02:45:52.239Z,98305.48
2022-08-05T02:47:05.934Z,98303.89
2022-08-05T02:48:17.480Z,98308.58
2022-08-05T02:49:27.620Z,98314.76
2022-08-05T02:50:48.939Z,98314.61
2022-08-05T02:52:03.947Z,98313.98
2022-08-05T02:53:18.969Z,98316.20
2022-08-05T02:54:34.955Z,98318.25
2022-08-05T02:55:52.017Z,98316.42
2022-08-05T02:57:03.938Z,98317.11
2022-08-05T02:58:20.088Z,98317.52
2022-08-05T02:59:30.945Z,98317.25
2022-08-05T03:01:00.558Z,98320.00
2022-08-05T03:02:11.888Z,98318.52
2022-08-05T03:03:23.391Z,98318.09
2022-08-05T03:04:32.097Z,98320.52
2022-08-05T03:06:54.185Z,98319.33
2022-08-05T03:07:24.729Z,98317.45
2022-08-05T03:08:45.118Z,98314.70
2022-08-05T03:09:54.015Z,98317.79
2022-08-05T03:11:55.263Z,98318.40
2022-08-05T03:12:42.721Z,98326.08
2022-08-05T03:14:02.825Z,98327.08
2022-08-05T03:15:13.067Z,98327.48
2022-08-05T03:16:21.884Z,98334.19
2022-08-05T03:17:31.421Z,98335.23
2022-08-05T03:18:39.679Z,98336.01
2022-08-05T03:19:52.948Z,98334.73
2022-08-05T03:21:04.397Z,98335.67
2022-08-05T03:22:19.062Z,98339.77
2022-08-05T03:23:42.135Z,98335.64
2022-08-05T03:24:56.700Z,98336.25
2022-08-05T03:26:31.715Z,98337.91
2022-08-05T03:27:58.898Z,98342.25
2022-08-05T03:29:12.332Z,98344.35
2022-08-05T03:30:30.283Z,98347.65
2022-08-05T03:31:56.570Z,98349.23
2022-08-05T03:33:08.751Z,98351.67
2022-08-05T03:34:17.929Z,98352.72
2022-08-05T03:35:28.878Z,98354.02
2022-08-05T03:36:37.256Z,98357.92
2022-08-05T03:37:53.462Z,98360.01
2022-08-05T03:39:12.935Z,98358.91
2022-08-05T03:40:32.059Z,98360.11
2022-08-05T03:41:46.677Z,98362.76
2022-08-05T03:42:58.934Z,98369.91
2022-08-05T03:44:12.199Z,98368.33
2022-08-05T03:45:21.857Z,98367.65
2022-08-05T03:46:32.625Z,98372.77
2022-08-05T03:47:41.367Z,98377.61
2022-08-05T03:48:50.126Z,98380.74
2022-08-05T03:50:01.634Z,98386.20
2022-08-05T03:52:38.771Z,98391.48
2022-08-05T03:56:01.164Z,98395.92
2022-08-05T03:56:09.782Z,98397.08
2022-08-05T03:56:46.309Z,98398.02
2022-08-05T03:57:58.505Z,98399.45
2022-08-05T03:59:13.043Z,98400.77
2022-08-05T04:00:31.253Z,98401.91
2022-08-05T04:01:42.389Z,98405.50
2022-08-05T04:02:58.519Z,98402.91
2022-08-05T04:04:10.683Z,98404.34
2022-08-05T04:05:23.144Z,98407.20
2022-08-05T04:06:31.120Z,98408.35
2022-08-05T04:07:57.151Z,98407.36
2022-08-05T04:09:08.812Z,98408.02
2022-08-05T04:10:20.069Z,98404.94
2022-08-05T04:11:47.586Z,98407.84
2022-08-05T04:12:59.419Z,98409.50
2022-08-05T04:14:10.583Z,98409.82
2022-08-05T04:15:32.821Z,98412.84
2022-08-05T04:16:42.863Z,98416.37
2022-08-05T04:17:56.104Z,98417.80
2022-08-05T04:19:10.595Z,98423.23
2022-08-05T04:20:24.872Z,98423.73
2022-08-05T04:22:08.671Z,98427.19
2022-08-05T04:23:06.127Z,98425.05
2022-08-05T04:24:22.681Z,98432.47
2022-08-05T04:25:56.693Z,98438.13
2022-08-05T04:27:01.322Z,98442.48
2022-08-05T04:28:12.947Z,98445.02
2022-08-05T04:29:21.698Z,98448.59
2022-08-05T04:30:31.450Z,98448.14
2022-08-05T04:31:42.930Z,98449.52
2022-08-05T04:32:51.091Z,98451.00
2022-08-05T04:34:18.941Z,98457.61
2022-08-05T04:36:11.394Z,98457.45
2022-08-05T04:36:57.620Z,98461.96
2022-08-05T04:38:09.560Z,98465.04
2022-08-05T04:39:27.870Z,98468.33
2022-08-05T04:40:37.823Z,98467.77
2022-08-05T04:41:56.699Z,98473.71
2022-08-05T04:43:05.622Z,98473.92
2022-08-05T04:44:29.566Z,98472.98
2022-08-05T04:45:48.814Z,98478.33
2022-08-05T04:47:09.335Z,98477.92
2022-08-05T04:48:27.313Z,98478.14
2022-08-05T04:50:02.419Z,98480.50
2022-08-05T04:51:11.395Z,98481.09
2022-08-05T04:52:19.879Z,98481.86
2022-08-05T04:53:29.424Z,98483.63
2022-08-05T04:54:44.365Z,98485.16
2022-08-05T04:56:33.578Z,98482.07
2022-08-05T04:57:22.402Z,98480.73
2022-08-05T04:58:38.283Z,98478.56
2022-08-05T04:59:49.228Z,98483.55
2022-08-05T05:00:58.734Z,98482.87
2022-08-05T05:02:36.870Z,98487.67
2022-08-05T05:03:41.882Z,98493.39
2022-08-05T05:04:52.542Z,98494.04
2022-08-05T05:06:38.901Z,98496.05
2022-08-05T05:07:55.224Z,98495.42
2022-08-05T05:09:08.698Z,98494.80
2022-08-05T05:10:16.923Z,98491.15
2022-08-05T05:11:41.610Z,98492.54
2022-08-05T05:12:59.219Z,98495.77
2022-08-05T05:14:16.088Z,98495.51
2022-08-05T05:16:01.903Z,98496.15
2022-08-05T05:16:55.712Z,98497.48
2022-08-05T05:18:04.061Z,98500.86
2022-08-05T05:19:19.157Z,98504.09
2022-08-05T05:20:33.494Z,98503.55
2022-08-05T05:21:41.914Z,98501.34
2022-08-05T05:22:57.789Z,98498.15
2022-08-05T05:24:09.129Z,98496.98
2022-08-05T05:25:17.942Z,98496.63
2022-08-05T05:26:28.098Z,98491.92
2022-08-05T05:27:45.796Z,98492.61
2022-08-05T05:28:59.405Z,98495.27
2022-08-05T05:30:15.294Z,98495.68
2022-08-05T05:31:35.773Z,98494.58
2022-08-05T05:32:42.436Z,98499.69
2022-08-05T05:34:01.670Z,98499.76
2022-08-05T05:35:11.818Z,98498.96
2022-08-05T05:36:28.540Z,98496.28
2022-08-05T05:38:00.263Z,98493.36
2022-08-05T05:39:10.944Z,98494.40
2022-08-05T05:40:22.579Z,98497.70
2022-08-05T05:41:40.824Z,98501.27
2022-08-05T05:42:56.672Z,98502.17
2022-08-05T05:44:05.319Z,98503.88
2022-08-05T05:45:36.418Z,98506.29
2022-08-05T05:46:57.934Z,98510.11
2022-08-05T05:48:09.716Z,98510.48
2022-08-05T05:49:23.107Z,98508.67
2022-08-05T05:50:33.889Z,98507.15
2022-08-05T05:51:49.911Z,98509.16
2022-08-05T05:53:02.798Z,98505.50
2022-08-05T05:54:49.870Z,98503.36
2022-08-05T05:56:00.500Z,98505.16
2022-08-05T05:57:13.742Z,98506.73
2022-08-05T05:58:31.742Z,98506.34
2022-08-05T05:59:42.148Z,98502.41
2022-08-05T06:00:52.496Z,98508.06
2022-08-05T06:02:01.502Z,98510.90
2022-08-05T06:03:28.298Z,98515.06
2022-08-05T06:04:40.583Z,98516.38
2022-08-05T06:05:53.913Z,98515.34
2022-08-05T06:07:05.795Z,98515.06
2022-08-05T06:08:13.991Z,98515.98
2022-08-05T06:09:59.964Z,98513.91
2022-08-05T06:11:12.274Z,98509.96
2022-08-05T06:12:21.369Z,98509.73
2022-08-05T06:13:29.892Z,98508.56
2022-08-05T06:14:50.125Z,98512.44
2022-08-05T06:16:28.238Z,98511.80
2022-08-05T06:17:30.904Z,98511.41
2022-08-05T06:18:42.087Z,98506.14
2022-08-05T06:19:59.514Z,98503.99
2022-08-05T06:21:18.591Z,98505.34
2022-08-05T06:22:28.965Z,98504.90
2022-08-05T06:23:44.060Z,98504.55
2022-08-05T06:24:55.449Z,98508.39
2022-08-05T06:26:13.486Z,98508.84
2022-08-05T06:28:12.288Z,98510.31
2022-08-05T06:29:03.331Z,98516.07
2022-08-05T06:30:20.029Z,98517.70
2022-08-05T06:31:32.309Z,98512.88
2022-08-05T06:32:41.524Z,98516.42
2022-08-05T06:34:07.817Z,98521.63
2022-08-05T06:36:02.819Z,98523.36
2022-08-05T06:36:57.960Z,98524.86
2022-08-05T06:38:11.557Z,98524.38
2022-08-05T06:39:22.097Z,98527.17
2022-08-05T06:40:35.396Z,98525.27
2022-08-05T06:41:55.914Z,98525.58
2022-08-05T06:43:58.245Z,98524.61
2022-08-05T06:44:38.222Z,98523.80
2022-08-05T06:46:06.707Z,98523.83
2022-08-05T06:48:11.304Z,98523.54
2022-08-05T06:48:55.652Z,98521.06
2022-08-05T06:50:06.750Z,98520.52
2022-08-05T06:51:25.332Z,98518.67
2022-08-05T06:52:40.342Z,98521.35
2022-08-05T06:53:53.582Z,98522.99
2022-08-05T06:55:05.405Z,98521.02
2022-08-05T06:56:25.825Z,98520.52
2022-08-05T06:58:02.662Z,98523.31
2022-08-05T06:59:11.960Z,98526.59
2022-08-05T07:00:24.752Z,98527.71
2022-08-05T07:01:33.755Z,98524.94
2022-08-05T07:02:48.953Z,98524.34
2022-08-05T07:04:03.783Z,98527.94
2022-08-05T07:05:18.613Z,98527.98
2022-08-05T07:06:27.777Z,98528.81
2022-08-05T07:07:43.778Z,98526.90
2022-08-05T07:08:55.654Z,98529.86
2022-08-05T07:10:07.044Z,98530.83
2022-08-05T07:11:22.269Z,98531.27
2022-08-05T07:12:50.717Z,98530.86
2022-08-05T07:14:29.303Z,98527.57
2022-08-05T07:16:01.821Z,98528.19
2022-08-05T07:18:00.619Z,98528.33
2022-08-05T07:18:49.900Z,98531.73
2022-08-05T07:20:31.524Z,98531.66
2022-08-05T07:21:28.729Z,98528.15
2022-08-05T07:22:59.209Z,98526.83
2022-08-05T07:24:11.490Z,98525.66
2022-08-05T07:25:54.969Z,98527.58
2022-08-05T07:26:50.385Z,98527.16
2022-08-05T07:28:05.903Z,98529.09
2022-08-05T07:29:16.975Z,98531.11
2022-08-05T07:30:32.032Z,98533.42
2022-08-05T07:31:54.913Z,98535.33
2022-08-05T07:33:09.968Z,98535.77
2022-08-05T07:34:21.228Z,98534.40
2022-08-05T07:36:02.938Z,98531.06
2022-08-05T07:37:08.084Z,98531.02
2022-08-05T07:38:32.814Z,98532.10
2022-08-05T07:40:26.510Z,98532.14
2022-08-05T07:42:14.748Z,98532.12
2022-08-05T07:42:52.068Z,98529.89
2022-08-05T07:44:01.033Z,98532.79
2022-08-05T07:45:12.065Z,98532.24
2022-08-05T07:46:25.541Z,98527.21
2022-08-05T07:47:42.217Z,98526.98
2022-08-05T07:49:02.985Z,98527.92
2022-08-05T07:50:16.817Z,98531.31
2022-08-05T07:51:36.821Z,98530.95
2022-08-05T07:52:46.731Z,98527.51
2022-08-05T07:53:57.934Z,98529.74
2022-08-05T07:55:16.097Z,98529.44
2022-08-05T07:57:01.344Z,98524.27
2022-08-05T07:58:17.607Z,98522.35
2022-08-05T07:59:41.060Z,98521.09
2022-08-05T08:00:52.466Z,98519.40
2022-08-05T08:02:00.643Z,98518.94
2022-08-05T08:03:17.281Z,98518.80
2022-08-05T08:04:38.104Z,98511.42
2022-08-05T08:05:52.829Z,98512.06
2022-08-05T08:07:05.435Z,98512.61
2022-08-05T08:08:19.966Z,98515.48
2022-08-05T08:09:29.639Z,98514.45
2022-08-05T08:10:40.283Z,98516.14
2022-08-05T08:12:00.163Z,98513.08
2022-08-05T08:13:12.397Z,98512.91
2022-08-05T08:14:22.478Z,98512.23
2022-08-05T08:16:33.670Z,98516.30
2022-08-05T08:17:02.272Z,98516.48
2022-08-05T08:18:14.029Z,98517.17
2022-08-05T08:20:21.790Z,98518.20
2022-08-05T08:21:01.805Z,98516.54
2022-08-05T08:22:16.061Z,98520.45
2022-08-05T08:24:01.005Z,98518.48
2022-08-05T08:24:56.000Z,98520.21
2022-08-05T08:26:15.609Z,98518.31
2022-08-05T08:27:26.746Z,98514.91
2022-08-05T08:28:55.079Z,98517.05
2022-08-05T08:30:30.027Z,98516.36
2022-08-05T08:31:38.154Z,98514.28
2022-08-05T08:32:58.102Z,98512.88
2022-08-05T08:34:12.878Z,98514.19
2022-08-05T08:35:22.662Z,98517.38
2022-08-05T08:36:47.656Z,98519.23
2022-08-05T08:38:03.328Z,98516.71
2022-08-05T08:39:15.463Z,98517.66
2022-08-05T08:40:24.579Z,98517.00
2022-08-05T08:41:52.344Z,98517.58
2022-08-05T08:44:57.883Z,98520.70
2022-08-05T08:45:21.154Z,98519.73
2022-08-05T08:46:15.605Z,98520.42
2022-08-05T08:48:07.749Z,98521.23
2022-08-05T08:50:07.583Z,98520.93
2022-08-05T08:50:52.605Z,98519.27
2022-08-05T08:52:15.516Z,98518.98
2022-08-05T08:53:26.667Z,98515.83
2022-08-05T08:54:38.346Z,98511.73
2022-08-05T08:56:04.879Z,98512.84
2022-08-05T08:57:15.692Z,98512.14
2022-08-05T08:58:43.506Z,98509.38
2022-08-05T09:00:00.383Z,98507.16
2022-08-05T09:01:17.695Z,98506.23
2022-08-05T09:02:27.107Z,98504.88
2022-08-05T09:03:40.612Z,98504.28
2022-08-05T09:05:16.884Z,98508.66
2022-08-05T09:06:29.973Z,98504.20
2022-08-05T09:07:39.698Z,98508.86
2022-08-05T09:09:06.215Z,98504.88
2022-08-05T09:10:17.263Z,98503.00
2022-08-05T09:11:50.770Z,98501.98
2022-08-05T09:13:04.789Z,98499.06
2022-08-05T09:14:58.425Z,98498.04
2022-08-05T09:15:44.092Z,98494.02
2022-08-05T09:16:54.025Z,98493.08
2022-08-05T09:18:03.673Z,98494.33
2022-08-05T09:19:15.997Z,98491.76
2022-08-05T09:20:37.378Z,98491.58
2022-08-05T09:22:18.521Z,98496.27
2022-08-05T09:23:22.529Z,98490.70
2022-08-05T09:24:33.002Z,98491.84
2022-08-05T09:26:02.613Z,98490.92
2022-08-05T09:28:03.899Z,98493.05
2022-08-05T09:29:16.259Z,98498.02
2022-08-05T09:30:27.894Z,98500.54
2022-08-05T09:32:40.043Z,98501.61
2022-08-05T09:33:10.548Z,98500.44
2022-08-05T09:34:27.474Z,98502.34
2022-08-05T09:35:38.848Z,98505.65
2022-08-05T09:36:59.224Z,98505.20
2022-08-05T09:38:16.802Z,98503.39
2022-08-05T09:39:45.146Z,98502.69
2022-08-05T09:40:58.620Z,98505.74
2022-08-05T09:42:11.393Z,98505.73
2022-08-05T09:43:41.239Z,98505.86
2022-08-05T09:44:56.018Z,98501.64
2022-08-05T09:46:08.968Z,98499.34
2022-08-05T09:47:22.613Z,98498.83
2022-08-05T09:48:33.258Z,98496.61
2022-08-05T09:50:01.074Z,98496.48
2022-08-05T09:51:15.271Z,98489.41
2022-08-05T09:52:34.939Z,98486.84
2022-08-05T09:54:00.406Z,98485.31
2022-08-05T09:55:58.716Z,98482.38
2022-08-05T09:56:41.064Z,98475.96
2022-08-05T09:58:12.492Z,98474.08
2022-08-05T09:59:21.130Z,98478.70
2022-08-05T10:00:30.842Z,98478.55
2022-08-05T10:01:45.748Z,98478.81
2022-08-05T10:02:58.319Z,98482.45
2022-08-05T10:04:12.564Z,98484.92
2022-08-05T10:05:32.680Z,98481.18
2022-08-05T10:06:54.656Z,98478.73
2022-08-05T10:08:37.061Z,98483.58
2022-08-05T10:09:45.462Z,98485.35
2022-08-05T10:10:58.325Z,98488.52
2022-08-05T10:12:30.053Z,98488.33
2022-08-05T10:13:47.861Z,98494.61
2022-08-05T10:15:19.966Z,98495.69
2022-08-05T10:16:38.050Z,98493.27
2022-08-05T10:18:16.768Z,98492.45
2022-08-05T10:19:31.955Z,98490.52
2022-08-05T10:21:08.418Z,98489.05
2022-08-05T10:22:29.985Z,98486.79
2022-08-05T10:23:59.052Z,98485.77
2022-08-05T10:25:11.387Z,98484.98
2022-08-05T10:26:32.298Z,98486.95
2022-08-05T10:28:13.002Z,98483.97
2022-08-05T10:29:24.213Z,98484.48
2022-08-05T10:32:47.844Z,98481.52
2022-08-05T10:32:54.586Z,98482.40
2022-08-05T10:33:52.393Z,98482.33
2022-08-05T10:35:04.011Z,98479.48
2022-08-05T10:36:13.571Z,98482.34
2022-08-05T10:37:37.166Z,98481.48
2022-08-05T10:38:53.735Z,98482.14
2022-08-05T10:40:17.798Z,98479.84
2022-08-05T10:41:50.194Z,98477.59
2022-08-05T10:43:35.885Z,98480.19
2022-08-05T10:44:50.602Z,98479.84
2022-08-05T10:46:06.568Z,98480.83
2022-08-05T10:47:27.015Z,98481.20
2022-08-05T10:48:57.303Z,98482.38
2022-08-05T10:50:31.549Z,98483.13
2022-08-05T10:52:02.852Z,98484.56
2022-08-05T10:53:45.390Z,98493.27
2022-08-05T10:55:12.169Z,98488.27
2022-08-05T10:56:31.153Z,98493.16
2022-08-05T10:57:44.783Z,98490.49
2022-08-05T10:59:12.316Z,98490.31
2022-08-05T11:00:35.436Z,98490.34
2022-08-05T11:02:05.366Z,98489.41
2022-08-05T11:03:25.674Z,98487.55
2022-08-05T11:04:46.286Z,98488.64
2022-08-05T11:06:17.846Z,98487.77
2022-08-05T11:07:33.056Z,98491.51
2022-08-05T11:09:17.678Z,98493.91
2022-08-05T11:10:29.248Z,98491.02
2022-08-05T11:11:44.926Z,98492.73
2022-08-05T11:13:03.489Z,98493.79
2022-08-05T11:14:14.689Z,98494.67
2022-08-05T11:16:00.407Z,98489.48
2022-08-05T11:17:59.073Z,98489.55
2022-08-05T11:20:10.755Z,98487.29
2022-08-05T11:21:01.617Z,98486.14
2022-08-05T11:22:42.573Z,98486.41
2022-08-05T11:24:04.857Z,98486.58
2022-08-05T11:26:04.487Z,98485.98
2022-08-05T11:27:50.128Z,98486.20
2022-08-05T11:29:12.700Z,98484.36
2022-08-05T11:30:23.789Z,98483.92
2022-08-05T11:31:58.788Z,98484.52
2022-08-05T11:33:46.640Z,98488.23
2022-08-05T11:34:59.641Z,98490.16
2022-08-05T11:36:10.262Z,98489.86
2022-08-05T11:38:26.403Z,98491.73
2022-08-05T11:39:40.604Z,98490.15
2022-08-05T11:41:12.678Z,98490.95
2022-08-05T11:42:31.637Z,98489.75
2022-08-05T11:44:04.725Z,98491.23
2022-08-05T11:45:23.175Z,98491.31
2022-08-05T11:47:09.361Z,98493.34
2022-08-05T11:48:14.263Z,98492.45
2022-08-05T11:49:26.340Z,98494.13
2022-08-05T11:50:40.484Z,98495.39
2022-08-05T11:51:52.591Z,98494.46
2022-08-05T11:53:10.104Z,98494.87
2022-08-05T11:54:33.720Z,98493.58
2022-08-05T11:56:04.313Z,98493.34
2022-08-05T11:57:24.258Z,98495.52
2022-08-05T11:58:42.943Z,98497.32
2022-08-05T12:00:03.692Z,98495.45
2022-08-05T12:01:23.522Z,98494.67
2022-08-05T12:02:36.168Z,98496.60
2022-08-05T12:03:56.023Z,98498.71
2022-08-05T12:05:18.078Z,98496.08
2022-08-05T12:06:34.110Z,98496.52
2022-08-05T12:08:03.553Z,98496.44
2022-08-05T12:09:20.111Z,98496.01
2022-08-05T12:10:43.301Z,98495.38
2022-08-05T12:11:58.056Z,98495.92
2022-08-05T12:13:28.031Z,98498.30
2022-08-05T12:14:46.485Z,98501.30
2022-08-05T12:15:58.210Z,98505.95
2022-08-05T12:17:36.136Z,98505.08
2022-08-05T12:18:49.414Z,98506.45
2022-08-05T12:20:26.678Z,98505.79
2022-08-05T12:21:39.091Z,98506.23
2022-08-05T12:22:48.171Z,98505.19
2022-08-05T12:24:07.258Z,98505.56
2022-08-05T12:25:18.097Z,98508.21
2022-08-05T12:26:39.490Z,98507.28
2022-08-05T12:27:53.638Z,98506.80
2022-08-05T12:29:03.307Z,98508.05
2022-08-05T12:30:15.445Z,98507.94
2022-08-05T12:31:33.124Z,98504.62
2022-08-05T12:32:57.086Z,98505.77
2022-08-05T12:34:23.760Z,98503.34
2022-08-05T12:35:37.211Z,98505.48
2022-08-05T12:36:48.781Z,98506.41
2022-08-05T12:37:59.818Z,98507.81
2022-08-05T12:39:13.474Z,98506.96
2022-08-05T12:40:29.773Z,98504.39
2022-08-05T12:41:43.785Z,98508.33
2022-08-05T12:42:57.151Z,98513.42
2022-08-05T12:44:28.520Z,98514.05
2022-08-05T12:45:53.928Z,98517.42
2022-08-05T12:47:04.439Z,98517.20
2022-08-05T12:48:27.592Z,98521.64
2022-08-05T12:50:03.065Z,98521.69
2022-08-05T12:52:13.942Z,98524.36
2022-08-05T12:53:01.675Z,98528.27
2022-08-05T12:54:16.876Z,98531.59
2022-08-05T12:55:35.238Z,98528.89
2022-08-05T12:56:45.158Z,98532.06
2022-08-05T12:58:48.312Z,98531.02
2022-08-05T13:00:08.398Z,98536.98
2022-08-05T13:02:00.556Z,98538.18
2022-08-05T13:02:31.733Z,98535.61
2022-08-05T13:03:42.312Z,98536.55
2022-08-05T13:04:54.713Z,98537.93
2022-08-05T13:06:04.237Z,98537.98
2022-08-05T13:07:17.249Z,98541.45
2022-08-05T13:08:26.968Z,98544.83
2022-08-05T13:09:37.601Z,98543.27
2022-08-05T13:10:50.131Z,98546.61
2022-08-05T13:12:05.915Z,98549.31
2022-08-05T13:14:06.379Z,98549.05
2022-08-05T13:15:05.584Z,98549.31
2022-08-05T13:16:25.105Z,98551.77
2022-08-05T13:17:41.461Z,98553.22
2022-08-05T13:18:58.993Z,98552.38
2022-08-05T13:20:21.697Z,98550.45
2022-08-05T13:21:37.628Z,98550.63
2022-08-05T13:22:54.459Z,98548.63
2022-08-05T13:24:04.394Z,98548.06
2022-08-05T13:25:19.259Z,98548.95
2022-08-05T13:26:32.075Z,98551.04
2022-08-05T13:27:44.921Z,98547.59
2022-08-05T13:29:03.037Z,98551.08
2022-08-05T13:30:35.313Z,98549.58
2022-08-05T13:32:04.282Z,98551.44
2022-08-05T13:34:22.357Z,98551.98
2022-08-05T13:34:46.538Z,98556.70
2022-08-05T13:35:56.867Z,98559.34
2022-08-05T13:37:14.246Z,98558.81
2022-08-05T13:38:36.265Z,98560.80
2022-08-05T13:40:16.156Z,98562.02
2022-08-05T13:41:18.478Z,98562.75
2022-08-05T13:42:28.800Z,98564.95
2022-08-05T13:43:45.689Z,98564.91
2022-08-05T13:45:03.890Z,98568.47
2022-08-05T13:46:15.328Z,98570.39
2022-08-05T13:47:34.583Z,98571.21
2022-08-05T13:48:58.835Z,98575.29
2022-08-05T13:50:16.248Z,98579.81
2022-08-05T13:51:41.116Z,98582.21
2022-08-05T13:52:50.199Z,98586.69
2022-08-05T13:54:02.266Z,98588.32
2022-08-05T13:55:11.768Z,98587.20
2022-08-05T13:56:51.235Z,98586.20
2022-08-05T13:58:01.043Z,98588.96
2022-08-05T13:59:20.405Z,98593.27
2022-08-05T14:00:34.538Z,98594.17
2022-08-05T14:01:46.606Z,98595.14
2022-08-05T14:03:10.345Z,98594.20
2022-08-05T14:04:39.001Z,98599.08
2022-08-05T14:06:25.765Z,98597.71
2022-08-05T14:07:56.309Z,98599.60
2022-08-05T14:08:46.887Z,98597.81
2022-08-05T14:09:58.001Z,98600.10
2022-08-05T14:11:20.545Z,98602.88
2022-08-05T14:12:32.705Z,98603.90
2022-08-05T14:13:41.765Z,98604.48
2022-08-05T14:14:51.477Z,98608.46
2022-08-05T14:16:06.816Z,98608.16
2022-08-05T14:17:24.915Z,98607.08
2022-08-05T14:18:34.377Z,98611.17
2022-08-05T14:19:55.393Z,98610.27
2022-08-05T14:22:07.909Z,98611.58
2022-08-05T14:22:36.857Z,98611.70
2022-08-05T14:23:45.337Z,98612.16
2022-08-05T14:24:54.617Z,98610.19
2022-08-05T14:26:04.953Z,98613.55
2022-08-05T14:27:18.674Z,98616.80
2022-08-05T14:28:33.624Z,98616.92
2022-08-05T14:29:45.771Z,98617.70
2022-08-05T14:31:02.990Z,98618.70
2022-08-05T14:32:26.987Z,98622.38
2022-08-05T14:33:59.473Z,98626.04
2022-08-05T14:35:11.655Z,98625.64
2022-08-05T14:36:21.585Z,98628.55
2022-08-05T14:37:45.702Z,98629.49
2022-08-05T14:38:58.981Z,98633.08
2022-08-05T14:40:16.870Z,98635.44
2022-08-05T14:41:28.190Z,98634.84
2022-08-05T14:42:37.396Z,98637.76
2022-08-05T14:44:02.597Z,98633.68
2022-08-05T14:45:17.868Z,98635.84
2022-08-05T14:46:29.550Z,98636.29
2022-08-05T14:48:03.543Z,98636.38
2022-08-05T14:49:11.154Z,98637.46
2022-08-05T14:50:21.755Z,98635.66
2022-08-05T14:51:37.979Z,98633.02
2022-08-05T14:52:58.485Z,98634.40
2022-08-05T14:54:27.172Z,98633.35
2022-08-05T14:55:41.101Z,98633.13
2022-08-05T14:56:51.008Z,98632.26
2022-08-05T14:58:11.189Z,98631.21
2022-08-05T14:59:23.601Z,98631.77
2022-08-05T15:00:32.773Z,98636.70
2022-08-05T15:01:48.072Z,98638.84
2022-08-05T15:02:58.188Z,98634.33
2022-08-05T15:04:13.336Z,98634.45
2022-08-05T15:05:22.284Z,98636.75
2022-08-05T15:06:39.082Z,98638.34
2022-08-05T15:08:06.495Z,98636.13
2022-08-05T15:09:51.201Z,98630.48
2022-08-05T15:10:50.118Z,98629.61
2022-08-05T15:12:01.031Z,98633.83
2022-08-05T15:13:14.569Z,98634.70
2022-08-05T15:14:35.704Z,98634.23
2022-08-05T15:15:55.050Z,98636.70
2022-08-05T15:17:09.759Z,98635.19
2022-08-05T15:18:38.378Z,98635.06
2022-08-05T15:19:49.202Z,98638.63
2022-08-05T15:21:07.666Z,98638.85
2022-08-05T15:22:19.759Z,98634.91
2022-08-05T15:23:30.127Z,98636.40
2022-08-05T15:24:39.652Z,98633.17